Airfield :







YOU CAN JOIN US ON...

 
LOGIN :

Register | Disclaimer

   EN    FR    IT 

 









Legend :    VFR   Marginal VFR   IFR   Intensive IFR   Very Intensive IFR
Visi :
Ceiling :
>= 8 km
>= 3000ft
5 to 8 km
1000 to 3000 ft
1500m to 5 km
500 to 1000 ft
800 to 1500m
200 to 500 ft
< 800m
< 200 ft
Symbols :   Thunderstorms  Fog  Heavy snow  Heavy precipitations  Wind > 20 kt






- Airport Elevation : 124 ft
- IATA code : YGV


CYGV - Havre St Pierre

CURRENT METAR :
  • 220415Z AUTO 08014G19KT 9SM SCT076 BKN100 BKN120 OVC150 16/15 A2952 RMK PRESFR SLP999 DENSITY ALT 800FT

EXPIRED METARs :
  • 220325Z AUTO 09009KT 6SM -RA BR SCT046 BKN066 OVC079 16/14 A2958 RMK SLP018 DENSITY ALT 700FT
  • 220300Z AUTO 12008KT 9SM -RA OVC096 17/13 A2959 RMK SLP024 DENSITY ALT 800FT
  • 220225Z AUTO 11010G15KT 9SM SCT076 BKN094 BKN110 OVC140 18/13 A2960 RMK SLP025 DENSITY ALT 900FT
  • 220204Z AUTO 11008KT 9SM -RA OVC076 19/13 A2961 RMK SLP028 DENSITY ALT 1000FT

TAF AMD TAF CYGV
Valid from the 22 at 03:00 until the 22 at 14:00 UTC


220325Z 2203/2214 12008KT P6SM SCT050 BKN080
TEMPO 2203/2214 5SM -RA BR BKN050 OVC080
BECMG 2210/2212 18010KT RMK FCST BASED ON AUTO OBS. NXT FCST BY 220800Z
CZUL FIR / North America



MET'MAP, your aeronautical weather chart ! - Copyright ORBIFLY December 2007 - Disclaimer

ORBIFLY MET'MAP TEAM :

Programming & Development : Alexandra Zaïnal
Concept & original design : Baudouin d'Aumeries
Assistance for programming : Marc-Olivier Méhu
Technical & hardware support : Manuel Goepfert

Contact : metmap@orbifly.com




SOURCES & CREDITS :

   NOAA